createdAt,value
2022-08-17T02:37:22.316Z,27.40
2022-08-17T02:42:29.865Z,27.03
2022-08-17T02:47:33.440Z,26.85
2022-08-17T02:52:57.309Z,26.72
2022-08-17T02:58:04.630Z,26.70
2022-08-17T03:03:09.519Z,26.73
2022-08-17T03:19:42.244Z,26.32
2022-08-17T03:24:46.760Z,25.86
2022-08-17T03:29:51.468Z,25.60
2022-08-17T03:35:00.943Z,25.32
2022-08-17T03:40:07.237Z,25.19
2022-08-17T03:45:15.585Z,25.08
2022-08-17T03:50:21.324Z,24.89
2022-08-17T03:55:35.780Z,24.70
2022-08-17T04:00:40.135Z,24.55
2022-08-17T04:05:45.561Z,24.33
2022-08-17T04:39:46.355Z,23.45
2022-08-17T04:44:49.996Z,23.15
2022-08-17T04:49:53.589Z,22.97
2022-08-17T04:54:58.804Z,22.81
2022-08-17T05:00:02.603Z,22.49
2022-08-17T05:05:07.508Z,22.34
2022-08-17T05:10:12.971Z,22.12
2022-08-17T05:15:16.624Z,22.03
2022-08-17T05:20:20.247Z,21.84
2022-08-17T05:25:28.717Z,21.62
2022-08-17T05:30:35.772Z,21.63
2022-08-17T05:35:42.334Z,21.62
2022-08-17T05:40:48.463Z,21.42
2022-08-17T05:46:01.134Z,21.33
2022-08-17T05:51:22.664Z,20.94
2022-08-17T05:56:47.833Z,20.77
2022-08-17T06:02:05.403Z,20.82
2022-08-17T06:07:15.687Z,20.57
2022-08-17T06:12:38.966Z,20.60
2022-08-17T06:17:44.019Z,20.49
2022-08-17T06:22:50.351Z,20.49
2022-08-17T06:28:00.017Z,20.32
2022-08-17T06:33:08.308Z,20.18
2022-08-17T06:38:38.518Z,20.29
2022-08-17T06:43:56.171Z,20.58
2022-08-17T06:49:12.097Z,20.26
2022-08-17T06:54:21.110Z,20.03
2022-08-17T06:59:54.477Z,20.06
2022-08-17T07:04:55.954Z,20.21
2022-08-17T07:10:01.905Z,20.10
2022-08-17T07:15:13.933Z,19.88
2022-08-17T07:20:20.096Z,19.60
2022-08-17T07:25:23.760Z,19.44
2022-08-17T07:30:31.864Z,19.56
2022-08-17T07:35:49.415Z,19.68
2022-08-17T07:41:02.670Z,19.53
2022-08-17T07:46:17.831Z,19.47
2022-08-17T07:51:25.514Z,19.58
2022-08-17T07:56:39.663Z,19.56
2022-08-17T08:01:47.853Z,19.51
2022-08-17T08:07:02.029Z,19.54
2022-08-17T08:12:32.720Z,19.63
2022-08-17T08:17:50.509Z,19.70
2022-08-17T08:23:03.686Z,19.70
2022-08-17T08:28:18.911Z,19.70
2022-08-17T08:33:42.881Z,19.54
2022-08-17T08:38:52.951Z,19.13
2022-08-17T08:44:07.174Z,19.00
2022-08-17T08:50:02.572Z,19.24
2022-08-17T08:55:11.298Z,19.14
2022-08-17T09:00:17.438Z,19.25
2022-08-17T09:05:33.545Z,19.26
2022-08-17T09:10:54.197Z,19.07
2022-08-17T09:16:03.645Z,19.06
2022-08-17T09:21:15.113Z,18.95
2022-08-17T09:26:28.888Z,18.90
2022-08-17T09:31:34.487Z,18.99
2022-08-17T09:37:05.098Z,18.93
2022-08-17T09:42:15.479Z,18.95
2022-08-17T09:47:27.031Z,19.03
2022-08-17T09:52:32.847Z,18.94
2022-08-17T09:57:56.108Z,18.96
2022-08-17T10:03:24.200Z,18.91
2022-08-17T10:08:40.021Z,18.66
2022-08-17T10:13:53.540Z,18.56
2022-08-17T10:19:14.772Z,18.63
2022-08-17T10:24:23.965Z,18.58
2022-08-17T10:29:48.505Z,18.57
2022-08-17T10:35:25.564Z,18.62
2022-08-17T10:40:45.355Z,18.54
2022-08-17T10:46:10.544Z,18.49
2022-08-17T10:51:38.259Z,18.44
2022-08-17T10:56:49.560Z,18.45
2022-08-17T11:02:09.975Z,18.30
2022-08-17T11:07:26.638Z,18.13
2022-08-17T11:12:46.153Z,18.08
2022-08-17T11:18:19.299Z,18.19
2022-08-17T11:23:54.359Z,17.98
2022-08-17T11:29:04.600Z,17.97
2022-08-17T11:34:18.153Z,18.06
2022-08-17T11:39:54.372Z,18.09
2022-08-17T11:45:04.269Z,18.12
2022-08-17T11:50:37.223Z,18.06
2022-08-17T11:56:05.707Z,17.92
2022-08-17T12:01:13.610Z,17.72
2022-08-17T12:06:49.195Z,17.88
2022-08-17T12:12:13.305Z,17.75
2022-08-17T12:17:40.467Z,17.76
2022-08-17T12:22:55.541Z,17.73
2022-08-17T12:28:06.825Z,17.41
2022-08-17T12:33:25.236Z,17.56
2022-08-17T12:38:33.640Z,17.39
2022-08-17T12:43:37.330Z,17.46
2022-08-17T12:48:59.842Z,17.57
2022-08-17T12:54:04.047Z,17.59
2022-08-17T12:59:07.675Z,17.93
2022-08-17T13:04:14.884Z,18.33
2022-08-17T13:09:23.433Z,18.17
2022-08-17T13:14:45.841Z,17.60
2022-08-17T13:19:51.990Z,17.58
2022-08-17T13:24:57.494Z,17.51
2022-08-17T13:30:04.735Z,17.28
2022-08-17T13:35:41.815Z,17.34
2022-08-17T13:40:51.194Z,17.50
2022-08-17T13:46:07.739Z,17.62
2022-08-17T13:51:35.738Z,17.78
2022-08-17T13:56:54.977Z,18.07
2022-08-17T14:01:58.611Z,17.99
2022-08-17T14:07:27.044Z,18.12
2022-08-17T14:12:33.898Z,18.14
2022-08-17T14:17:39.101Z,18.13
2022-08-17T14:22:48.930Z,18.46
2022-08-17T14:27:54.069Z,18.31
2022-08-17T14:33:00.884Z,18.32
2022-08-17T14:38:06.094Z,18.39
2022-08-17T14:43:09.660Z,18.47
2022-08-17T14:48:13.454Z,18.54
2022-08-17T14:53:19.501Z,18.56
2022-08-17T14:58:23.076Z,18.63
2022-08-17T15:03:26.663Z,18.89
2022-08-17T15:08:32.184Z,19.10
2022-08-17T15:13:35.917Z,19.07
2022-08-17T15:18:56.197Z,19.28
2022-08-17T15:24:01.397Z,19.59
2022-08-17T15:29:05.153Z,19.80
2022-08-17T15:34:08.781Z,19.96
2022-08-17T15:39:14.423Z,20.09
2022-08-17T15:44:23.197Z,20.11
2022-08-17T15:49:39.560Z,20.67
2022-08-17T15:54:49.538Z,21.76
2022-08-17T15:59:54.667Z,23.54
2022-08-17T16:05:10.141Z,24.83
2022-08-17T16:10:19.029Z,25.45
2022-08-17T16:15:22.769Z,25.94
2022-08-17T16:20:26.599Z,26.15
2022-08-17T16:25:52.300Z,26.83
2022-08-17T16:30:56.976Z,26.96
2022-08-17T16:36:00.671Z,26.91
2022-08-17T16:41:06.946Z,27.82
2022-08-17T16:46:10.526Z,27.40
2022-08-17T16:51:14.084Z,27.66
2022-08-17T16:56:19.347Z,28.51
2022-08-17T17:01:23.269Z,28.88
2022-08-17T17:06:38.437Z,29.50
2022-08-17T17:11:45.581Z,28.75
2022-08-17T17:16:56.572Z,27.84
2022-08-17T17:22:06.010Z,27.11
2022-08-17T17:27:22.144Z,26.71
2022-08-17T17:32:34.414Z,26.63
2022-08-17T17:37:40.961Z,26.40
2022-08-17T17:42:47.406Z,26.29
2022-08-17T17:47:51.466Z,25.84
2022-08-17T17:53:01.096Z,25.34
2022-08-17T17:58:16.411Z,24.97
2022-08-17T18:03:33.019Z,25.15
2022-08-17T18:08:55.462Z,25.21
2022-08-17T18:14:15.324Z,25.69
2022-08-17T18:19:20.228Z,26.16
2022-08-17T18:24:31.857Z,27.19
2022-08-17T18:29:43.499Z,28.28
2022-08-17T18:34:49.069Z,28.72
2022-08-17T18:39:52.765Z,29.19
2022-08-17T18:44:57.995Z,29.39
2022-08-17T18:50:21.996Z,29.58
2022-08-17T18:55:28.303Z,30.22
2022-08-17T19:00:38.490Z,29.80
2022-08-17T19:05:44.429Z,29.35
2022-08-17T19:10:49.467Z,28.77
2022-08-17T19:16:11.559Z,28.39
2022-08-17T19:21:22.349Z,28.23
2022-08-17T19:26:53.258Z,28.06
2022-08-17T19:31:56.693Z,27.83
2022-08-17T19:37:03.262Z,27.75
2022-08-17T19:42:13.615Z,27.95
2022-08-17T19:47:43.811Z,27.79
2022-08-17T19:52:55.710Z,27.37
2022-08-17T19:58:07.548Z,28.32
2022-08-17T20:03:18.681Z,28.48
2022-08-17T20:08:27.295Z,28.66
2022-08-17T20:13:37.549Z,29.00
2022-08-17T20:18:50.324Z,29.56
2022-08-17T20:24:00.366Z,30.41
2022-08-17T20:29:36.847Z,31.22
2022-08-17T20:34:47.991Z,31.59
2022-08-17T20:40:20.377Z,31.49
2022-08-17T20:45:59.218Z,31.56
2022-08-17T20:51:18.741Z,31.58
2022-08-17T20:56:54.976Z,31.65
2022-08-17T21:02:19.122Z,31.65
2022-08-17T21:07:28.128Z,31.59
2022-08-17T21:12:46.468Z,32.09
2022-08-17T21:17:57.860Z,32.59
2022-08-17T21:23:31.211Z,32.73
2022-08-17T21:29:00.474Z,32.50
2022-08-17T21:34:29.272Z,32.21
2022-08-17T21:39:41.550Z,31.36
2022-08-17T21:44:49.485Z,31.32
2022-08-17T21:49:54.020Z,31.62
2022-08-17T21:55:01.467Z,31.42
2022-08-17T22:00:08.614Z,31.47
2022-08-17T22:05:14.397Z,31.43
2022-08-17T22:10:32.965Z,31.28
2022-08-17T22:15:39.995Z,30.93
2022-08-17T22:20:44.728Z,30.78
2022-08-17T22:26:09.595Z,30.38
2022-08-17T22:31:20.807Z,29.92
2022-08-17T22:36:31.195Z,29.47
2022-08-17T22:41:52.545Z,29.39
2022-08-17T22:47:01.296Z,29.76
2022-08-17T22:52:12.683Z,29.95
2022-08-17T22:57:19.133Z,30.14
2022-08-17T23:02:25.858Z,30.18
2022-08-17T23:07:29.569Z,30.10
2022-08-17T23:12:35.176Z,29.70
2022-08-17T23:17:39.252Z,29.37
2022-08-17T23:22:52.397Z,29.39
2022-08-17T23:27:59.520Z,29.67
2022-08-17T23:33:06.756Z,29.99
2022-08-17T23:38:11.308Z,30.33
2022-08-17T23:43:25.726Z,30.55
2022-08-17T23:48:35.134Z,30.41
2022-08-17T23:53:43.744Z,30.20
2022-08-17T23:58:49.046Z,29.88
